Time;durP1;ratioP1;P1;durP2;ratioP2;P2;SDS_P1;SDS_P2;PMS_P1;PMS_P2;Temp;Humidity;BMP_temperature;BMP_pressure;BME280_temperature;BME280_humidity;BME280_pressure;Samples;Min_cycle;Max_cycle;Signal;HPM_P1;HPM_P2
2021/10/12 00:01:18;;;;;;;0.40;0.30;;;;;;;8.93;100.00;101321.69;5054758;28;20442;-70
2021/10/12 00:03:45;;;;;;;0.40;0.30;;;;;;;8.92;100.00;101328.19;5054735;28;20446;-69
2021/10/12 00:06:11;;;;;;;0.40;0.20;;;;;;;8.91;100.00;101332.78;5054650;28;20512;-70
2021/10/12 00:08:39;;;;;;;0.40;0.30;;;;;;;8.86;100.00;101327.41;5054367;28;20993;-70
2021/10/12 00:11:07;;;;;;;0.40;0.20;;;;;;;8.79;100.00;101316.84;5054308;28;20963;-69
2021/10/12 00:13:34;;;;;;;0.40;0.30;;;;;;;8.82;100.00;101324.41;5054266;28;20484;-69
2021/10/12 00:16:00;;;;;;;0.40;0.30;;;;;;;8.86;100.00;101324.69;5054411;28;20490;-69
2021/10/12 00:18:27;;;;;;;0.40;0.30;;;;;;;8.87;100.00;101322.78;5054768;28;20438;-69
2021/10/12 00:20:53;;;;;;;0.40;0.30;;;;;;;8.87;100.00;101317.41;5054170;28;20456;-69
2021/10/12 00:23:20;;;;;;;0.40;0.30;;;;;;;8.88;100.00;101324.41;5054100;28;20442;-70
2021/10/12 00:25:46;;;;;;;0.40;0.30;;;;;;;8.84;100.00;101321.44;5054014;28;20462;-69
2021/10/12 00:28:14;;;;;;;0.40;0.30;;;;;;;8.86;100.00;101313.06;5053763;28;20438;-70
2021/10/12 00:30:41;;;;;;;0.40;0.30;;;;;;;8.81;100.00;101316.59;5054262;28;20454;-70
2021/10/12 00:33:07;;;;;;;0.40;0.30;;;;;;;8.77;100.00;101302.00;5054188;28;20438;-70
2021/10/12 00:35:34;;;;;;;0.40;0.30;;;;;;;8.76;100.00;101303.88;5055529;28;20681;-70
2021/10/12 00:38:00;;;;;;;0.40;0.30;;;;;;;8.78;100.00;101306.31;5053816;28;20932;-70
2021/10/12 00:40:27;;;;;;;0.40;0.30;;;;;;;8.76;100.00;101309.28;5054116;28;20449;-69
2021/10/12 00:42:53;;;;;;;0.40;0.27;;;;;;;8.75;100.00;101312.25;5053743;28;20515;-70
2021/10/12 00:45:21;;;;;;;0.40;0.20;;;;;;;8.72;100.00;101304.69;5053532;28;21017;-70
2021/10/12 00:47:58;;;;;;;0.40;0.30;;;;;;;8.69;100.00;101294.44;5053818;28;20802;-69
2021/10/12 00:50:26;;;;;;;0.40;0.30;;;;;;;8.65;100.00;101296.88;5054152;28;20446;-69
2021/10/12 00:52:52;;;;;;;0.40;0.30;;;;;;;8.55;100.00;101291.47;5053824;28;20932;-69
2021/10/12 00:55:19;;;;;;;0.40;0.30;;;;;;;8.48;100.00;101288.22;5053667;28;20893;-70
2021/10/12 00:57:45;;;;;;;0.40;0.30;;;;;;;8.51;100.00;101295.78;5053831;28;20453;-69
2021/10/12 01:00:12;;;;;;;0.40;0.30;;;;;;;8.47;100.00;101290.13;5053409;28;20962;-69
2021/10/12 01:02:40;;;;;;;0.40;0.30;;;;;;;8.39;100.00;101290.66;5053704;28;20450;-69
2021/10/12 01:05:08;;;;;;;0.40;0.23;;;;;;;8.38;100.00;101288.22;5053661;28;20435;-69
2021/10/12 01:07:35;;;;;;;0.40;0.20;;;;;;;8.31;100.00;101286.56;5053512;28;20458;-69
2021/10/12 01:10:02;;;;;;;0.40;0.20;;;;;;;8.30;100.00;101282.25;5053230;28;20438;-71
2021/10/12 01:12:28;;;;;;;0.40;0.30;;;;;;;8.31;100.00;101278.44;5053531;28;20446;-71
2021/10/12 01:14:56;;;;;;;0.40;0.30;;;;;;;8.32;100.00;101272.00;5053412;28;20478;-70
2021/10/12 01:17:22;;;;;;;0.40;0.30;;;;;;;8.37;100.00;101265.81;5053374;28;20477;-71
2021/10/12 01:19:50;;;;;;;0.40;0.20;;;;;;;8.37;100.00;101263.13;5053431;28;20446;-71
2021/10/12 01:22:18;;;;;;;0.40;0.30;;;;;;;8.45;100.00;101267.16;5053615;28;20450;-71
2021/10/12 01:24:44;;;;;;;0.40;0.20;;;;;;;8.46;100.00;101268.81;5053380;28;20469;-70
2021/10/12 01:27:11;;;;;;;0.40;0.30;;;;;;;8.44;100.00;101260.94;5053229;28;20466;-70
2021/10/12 01:29:37;;;;;;;0.40;0.30;;;;;;;8.43;100.00;101255.84;5053256;28;20442;-70
2021/10/12 01:32:04;;;;;;;0.40;0.23;;;;;;;8.41;100.00;101253.41;5053236;28;20457;-71
2021/10/12 01:34:30;;;;;;;0.40;0.30;;;;;;;8.40;100.00;101250.97;5052363;28;20453;-70
2021/10/12 01:36:57;;;;;;;0.40;0.30;;;;;;;8.34;100.00;101248.22;5052777;28;21013;-71
2021/10/12 01:39:25;;;;;;;0.40;0.30;;;;;;;8.38;100.00;101251.25;5052981;28;20446;-71
2021/10/12 01:41:51;;;;;;;0.40;0.20;;;;;;;8.37;100.00;101248.78;5052918;28;20845;-71
2021/10/12 01:44:19;;;;;;;0.40;0.20;;;;;;;8.37;100.00;101238.00;5053124;28;20802;-71
2021/10/12 01:46:45;;;;;;;0.40;0.30;;;;;;;8.30;100.00;101230.97;5053095;28;20879;-71
2021/10/12 01:49:12;;;;;;;0.40;0.30;;;;;;;8.28;100.00;101221.53;5053076;28;20445;-70
2021/10/12 01:51:38;;;;;;;0.40;0.30;;;;;;;8.26;100.00;101229.88;5053110;28;20819;-71
2021/10/12 01:54:15;;;;;;;0.40;0.30;;;;;;;8.28;100.00;101218.81;5053060;28;20578;-71
2021/10/12 01:56:43;;;;;;;0.40;0.30;;;;;;;8.18;100.00;101218.81;5052916;28;20489;-71
2021/10/12 01:59:09;;;;;;;0.40;0.30;;;;;;;8.15;100.00;101208.56;5052960;28;20446;-71
2021/10/12 02:01:35;;;;;;;0.40;0.20;;;;;;;8.09;100.00;101210.44;5052977;28;20457;-71
2021/10/12 02:04:02;;;;;;;0.40;0.30;;;;;;;8.08;100.00;101204.22;5052944;28;20438;-71
2021/10/12 02:06:28;;;;;;;0.40;0.30;;;;;;;8.05;100.00;101198.56;5052868;28;20453;-71
2021/10/12 02:08:55;;;;;;;0.40;0.30;;;;;;;8.05;100.00;101193.16;5052926;28;20520;-70
2021/10/12 02:11:21;;;;;;;0.40;0.30;;;;;;;8.01;100.00;101192.06;5052908;28;20450;-69
2021/10/12 02:13:49;;;;;;;0.40;0.30;;;;;;;8.03;100.00;101185.34;5052902;28;20450;-70
2021/10/12 02:16:15;;;;;;;29.67;2.73;;;;;;;8.02;100.00;101191.81;5052677;28;20871;-71
2021/10/12 02:18:42;;;;;;;0.40;0.30;;;;;;;8.11;100.00;101194.00;5053097;28;20442;-71
2021/10/12 02:21:08;;;;;;;0.40;0.30;;;;;;;8.11;100.00;101180.50;5052775;28;20442;-70
2021/10/12 02:23:35;;;;;;;0.40;0.30;;;;;;;8.09;100.00;101170.78;5052448;28;20836;-69
2021/10/12 02:26:01;;;;;;;0.40;0.20;;;;;;;8.10;100.00;101166.19;5052683;28;20857;-69
2021/10/12 02:28:28;;;;;;;0.40;0.30;;;;;;;8.13;100.00;101165.66;5052695;28;20450;-68
2021/10/12 02:30:56;;;;;;;0.40;0.30;;;;;;;8.05;100.00;101168.88;5052722;28;20446;-69
2021/10/12 02:33:22;;;;;;;0.40;0.30;;;;;;;8.08;100.00;101154.84;5052687;28;20442;-71
2021/10/12 02:35:49;;;;;;;0.40;0.30;;;;;;;8.09;100.00;101145.69;5052513;28;20482;-72
2021/10/12 02:38:15;;;;;;;0.40;0.30;;;;;;;8.07;100.00;101147.84;5052881;28;20453;-73
2021/10/12 02:40:42;;;;;;;0.40;0.30;;;;;;;8.09;100.00;101145.69;5052863;28;20443;-73
2021/10/12 02:43:08;;;;;;;0.40;0.30;;;;;;;8.04;100.00;101138.41;5052423;28;20469;-72
2021/10/12 02:45:35;;;;;;;0.40;0.20;;;;;;;7.95;100.00;101144.59;5052488;28;20430;-72
2021/10/12 02:48:03;;;;;;;0.40;0.30;;;;;;;7.88;100.00;101142.19;5052552;28;20438;-73
2021/10/12 02:50:29;;;;;;;0.40;0.30;;;;;;;7.88;100.00;101147.59;5054384;28;20438;-72
2021/10/12 02:52:56;;;;;;;0.40;0.20;;;;;;;7.93;100.00;101152.97;5056100;28;20450;-71
2021/10/12 02:55:22;;;;;;;0.40;0.30;;;;;;;7.93;100.00;101150.28;5055510;28;21003;-73
2021/10/12 02:57:49;;;;;;;0.40;0.27;;;;;;;7.95;100.00;101160.78;5055957;28;20449;-72
2021/10/12 03:00:16;;;;;;;0.40;0.30;;;;;;;7.91;100.00;101155.13;5055969;28;20446;-72
2021/10/12 03:02:42;;;;;;;0.40;0.30;;;;;;;7.91;100.00;101144.34;5055929;28;20442;-71
2021/10/12 03:05:10;;;;;;;0.40;0.30;;;;;;;7.95;100.00;101141.91;5055742;28;20962;-71
2021/10/12 03:07:39;;;;;;;0.40;0.30;;;;;;;7.95;100.00;101144.59;5055814;28;20465;-72
2021/10/12 03:10:06;;;;;;;0.40;0.30;;;;;;;7.96;100.00;101151.63;5055783;28;20449;-71
2021/10/12 03:12:33;;;;;;;0.40;0.30;;;;;;;8.03;100.00;101152.97;5055726;28;20516;-72
2021/10/12 03:14:59;;;;;;;0.40;0.30;;;;;;;8.05;100.00;101153.50;5055657;28;20863;-72
2021/10/12 03:17:26;;;;;;;0.40;0.30;;;;;;;8.06;100.00;101140.84;5055308;28;20486;-72
2021/10/12 03:19:52;;;;;;;0.40;0.30;;;;;;;8.11;100.00;101137.34;5055456;28;20473;-72
2021/10/12 03:22:20;;;;;;;0.40;0.30;;;;;;;8.17;100.00;101125.44;5055460;28;20441;-72
2021/10/12 03:24:47;;;;;;;0.40;0.20;;;;;;;8.21;100.00;101115.72;5055482;28;20438;-71
2021/10/12 03:27:14;;;;;;;0.40;0.27;;;;;;;8.26;100.00;101119.22;5055315;28;20462;-71
2021/10/12 03:29:42;;;;;;;0.40;0.30;;;;;;;8.31;100.00;101115.72;5055350;28;20456;-72
2021/10/12 03:32:09;;;;;;;0.40;0.20;;;;;;;8.32;100.00;101101.97;5055037;28;20450;-71
2021/10/12 03:34:35;;;;;;;0.40;0.30;;;;;;;8.35;100.00;101104.09;5055024;28;20849;-70
2021/10/12 03:37:03;;;;;;;0.40;0.30;;;;;;;8.39;100.00;101099.00;5055051;28;20547;-70
2021/10/12 03:39:31;;;;;;;0.40;0.30;;;;;;;8.37;100.00;101095.78;5055152;28;20446;-70
2021/10/12 03:41:57;;;;;;;0.40;0.30;;;;;;;8.36;100.00;101091.41;5054882;28;20458;-70
2021/10/12 03:44:25;;;;;;;0.40;0.20;;;;;;;8.37;100.00;101093.06;5054857;28;20978;-70
2021/10/12 03:46:52;;;;;;;0.40;0.30;;;;;;;8.41;100.00;101082.50;5054953;28;20469;-70
2021/10/12 03:49:18;;;;;;;0.40;0.20;;;;;;;8.48;100.00;101086.56;5055045;28;20445;-71
2021/10/12 03:51:45;;;;;;;0.40;0.20;;;;;;;8.54;100.00;101081.94;5055099;28;20446;-70
2021/10/12 03:54:12;;;;;;;0.40;0.30;;;;;;;8.54;100.00;101081.94;5054527;28;20947;-70
2021/10/12 03:56:40;;;;;;;0.40;0.30;;;;;;;8.55;100.00;101087.06;5054335;28;20486;-70
2021/10/12 03:59:07;;;;;;;0.40;0.23;;;;;;;8.58;100.00;101074.91;5054456;28;20430;-70
2021/10/12 04:01:34;;;;;;;0.40;0.20;;;;;;;8.62;100.00;101081.38;5054309;28;20472;-70
2021/10/12 04:04:01;;;;;;;0.40;0.30;;;;;;;8.64;100.00;101075.72;5054523;28;20449;-70
2021/10/12 04:06:27;;;;;;;0.40;0.30;;;;;;;8.65;100.00;101078.13;5054445;28;20474;-70
2021/10/12 04:08:54;;;;;;;0.40;0.30;;;;;;;8.66;100.00;101068.94;5054194;28;20442;-70
2021/10/12 04:11:20;;;;;;;0.40;0.30;;;;;;;8.70;100.00;101075.41;5054551;28;20460;-70
2021/10/12 04:13:48;;;;;;;0.40;0.30;;;;;;;8.76;100.00;101071.59;5054495;28;20465;-70
2021/10/12 04:16:14;;;;;;;0.40;0.30;;;;;;;8.83;100.00;101080.22;5053996;28;20987;-69
2021/10/12 04:18:41;;;;;;;0.40;0.20;;;;;;;8.86;100.00;101083.47;5054461;28;20443;-70
2021/10/12 04:21:07;;;;;;;0.40;0.27;;;;;;;8.84;100.00;101075.63;5054467;28;20439;-70
2021/10/12 04:23:35;;;;;;;0.40;0.20;;;;;;;8.77;100.00;101065.13;5054734;28;20446;-72
2021/10/12 04:26:05;;;;;;;0.40;0.20;;;;;;;8.78;100.00;101066.72;5054009;28;20999;-70
2021/10/12 04:28:32;;;;;;;0.40;0.30;;;;;;;8.79;100.00;101056.72;5054350;28;20938;-71
2021/10/12 04:31:00;;;;;;;0.40;0.20;;;;;;;8.78;100.00;101055.13;5054302;28;20442;-71
2021/10/12 04:33:26;;;;;;;0.40;0.30;;;;;;;8.81;100.00;101043.78;5054254;28;20438;-71
2021/10/12 04:35:53;;;;;;;0.40;0.30;;;;;;;8.74;100.00;101043.25;5054106;28;20896;-70
2021/10/12 04:38:19;;;;;;;0.40;0.20;;;;;;;8.75;100.00;101040.28;5054152;28;20442;-70
2021/10/12 04:40:45;;;;;;;0.40;0.20;;;;;;;8.75;100.00;101042.97;5054101;28;20449;-70
2021/10/12 04:43:12;;;;;;;0.40;0.30;;;;;;;8.75;100.00;101040.28;5053871;28;20462;-71
2021/10/12 04:45:39;;;;;;;0.40;0.30;;;;;;;8.75;100.00;101029.47;5053929;28;20477;-71
2021/10/12 04:48:08;;;;;;;0.40;0.30;;;;;;;8.72;100.00;101030.03;5053623;28;20989;-71
2021/10/12 04:50:35;;;;;;;0.40;0.30;;;;;;;8.72;100.00;101019.25;5053635;28;20940;-71
2021/10/12 04:53:01;;;;;;;0.40;0.27;;;;;;;8.69;100.00;101008.97;5053878;28;20447;-72
2021/10/12 04:55:29;;;;;;;0.40;0.20;;;;;;;8.72;100.00;101000.34;5053731;28;20438;-71
2021/10/12 04:57:55;;;;;;;0.40;0.30;;;;;;;8.77;100.00;100988.69;5053983;28;20486;-71
2021/10/12 05:00:22;;;;;;;0.40;0.30;;;;;;;8.79;100.00;100971.09;5053732;28;20442;-72
2021/10/12 05:02:48;;;;;;;0.40;0.20;;;;;;;8.78;100.00;100966.81;5053417;28;20966;-71
2021/10/12 05:05:16;;;;;;;0.40;0.30;;;;;;;8.79;100.00;100968.41;5053652;28;20446;-72
2021/10/12 05:07:42;;;;;;;0.40;0.30;;;;;;;8.84;100.00;100959.47;5053632;28;20438;-72
2021/10/12 05:10:09;;;;;;;0.40;0.20;;;;;;;8.87;100.00;100950.81;5053774;28;20443;-72
2021/10/12 05:12:36;;;;;;;0.40;0.30;;;;;;;8.82;100.00;100935.44;5053163;28;20442;-72
2021/10/12 05:15:03;;;;;;;0.80;0.80;;;;;;;8.75;100.00;100931.44;5053485;28;20445;-71
2021/10/12 05:17:35;;;;;;;0.40;0.30;;;;;;;8.68;100.00;100947.16;5053308;28;20489;-71
2021/10/12 05:20:02;;;;;;;0.40;0.20;;;;;;;8.67;100.00;100951.72;5053098;28;20803;-71
2021/10/12 05:22:30;;;;;;;0.40;0.30;;;;;;;8.68;100.00;100949.88;5053394;28;20826;-71
2021/10/12 05:24:56;;;;;;;0.40;0.30;;;;;;;8.63;100.00;100944.47;5053351;28;20442;-71
2021/10/12 05:27:23;;;;;;;0.40;0.30;;;;;;;8.63;100.00;100947.16;5053250;28;20520;-71
2021/10/12 05:29:49;;;;;;;0.40;0.30;;;;;;;8.58;100.00;100948.81;5052955;28;20442;-71
2021/10/12 05:32:16;;;;;;;0.40;0.30;;;;;;;8.53;100.00;100950.72;5053260;28;20819;-71
2021/10/12 05:34:42;;;;;;;0.40;0.30;;;;;;;8.52;100.00;100943.72;5053226;28;20449;-71
2021/10/12 05:37:09;;;;;;;0.40;0.30;;;;;;;8.48;100.00;100954.28;5052714;28;20482;-71
2021/10/12 05:39:36;;;;;;;0.40;0.20;;;;;;;8.43;100.00;100957.00;5053319;28;20442;-71
2021/10/12 05:42:03;;;;;;;0.40;0.30;;;;;;;8.46;100.00;100955.66;5052980;28;20450;-70
2021/10/12 05:44:30;;;;;;;0.40;0.30;;;;;;;8.50;100.00;100953.97;5053110;28;20491;-71
2021/10/12 05:46:56;;;;;;;0.40;0.30;;;;;;;8.53;100.00;100956.13;5052961;28;20466;-70
2021/10/12 05:49:23;;;;;;;0.40;0.30;;;;;;;8.60;100.00;100959.34;5053043;28;20807;-70
2021/10/12 05:51:49;;;;;;;0.40;0.27;;;;;;;8.65;100.00;100948.50;5052970;28;20450;-70
2021/10/12 05:54:17;;;;;;;0.40;0.30;;;;;;;8.67;100.00;100950.94;5053038;28;20438;-70
2021/10/12 05:56:47;;;;;;;0.40;0.30;;;;;;;8.71;100.00;100947.38;5052817;28;20916;-72
2021/10/12 05:59:15;;;;;;;0.40;0.23;;;;;;;8.74;100.00;100952.25;5053186;28;20453;-72
2021/10/12 06:01:41;;;;;;;0.40;0.30;;;;;;;8.71;100.00;100949.28;5052738;28;20450;-72
2021/10/12 06:04:08;;;;;;;0.40;0.20;;;;;;;8.75;100.00;100948.44;5052921;28;20871;-71
2021/10/12 06:06:35;;;;;;;0.40;0.20;;;;;;;8.81;100.00;100947.34;5052806;28;20493;-71
2021/10/12 06:09:02;;;;;;;0.40;0.30;;;;;;;8.85;100.00;100944.88;5052649;28;20446;-71
2021/10/12 06:11:29;;;;;;;0.40;0.30;;;;;;;8.87;100.00;100942.72;5052876;28;20819;-71
2021/10/12 06:13:57;;;;;;;2.13;2.03;;;;;;;8.89;100.00;100942.41;5052862;28;20450;-69
2021/10/12 06:16:23;;;;;;;0.40;0.30;;;;;;;8.94;100.00;100939.69;5052416;28;20850;-70
2021/10/12 06:18:50;;;;;;;0.40;0.20;;;;;;;8.91;100.00;100951.06;5052882;28;20516;-71
2021/10/12 06:21:17;;;;;;;0.40;0.30;;;;;;;8.99;100.00;100937.75;5052840;28;20446;-71
2021/10/12 06:23:43;;;;;;;0.40;0.30;;;;;;;9.03;100.00;100937.97;5052761;28;20446;-70
2021/10/12 06:26:10;;;;;;;0.40;0.30;;;;;;;9.11;100.00;100940.09;5055757;28;20466;-71
2021/10/12 06:28:37;;;;;;;0.40;0.20;;;;;;;9.16;100.00;100948.16;5056660;28;20491;-71
2021/10/12 06:31:06;;;;;;;0.40;0.30;;;;;;;9.17;100.00;100938.97;5056582;28;20817;-71
2021/10/12 06:33:33;;;;;;;0.40;0.30;;;;;;;9.24;100.00;100950.25;5056321;28;20441;-71
2021/10/12 06:35:59;;;;;;;0.40;0.30;;;;;;;9.30;100.00;100949.13;5056567;28;20469;-72
2021/10/12 06:38:26;;;;;;;0.40;0.30;;;;;;;9.29;100.00;100938.59;5056489;28;20486;-72
2021/10/12 06:40:52;;;;;;;0.40;0.30;;;;;;;9.29;100.00;100952.91;5056418;28;20449;-72
2021/10/12 06:43:19;;;;;;;0.40;0.30;;;;;;;9.30;100.00;100943.72;5055902;28;20471;-71
2021/10/12 06:45:45;;;;;;;0.40;0.30;;;;;;;9.33;100.00;100945.84;5056242;28;20511;-72
2021/10/12 06:48:13;;;;;;;0.40;0.30;;;;;;;9.41;100.00;100954.44;5056303;28;20448;-72
2021/10/12 06:50:40;;;;;;;0.40;0.30;;;;;;;9.43;100.00;100947.69;5056276;28;20491;-72
2021/10/12 06:53:06;;;;;;;0.40;0.30;;;;;;;9.34;100.00;100947.50;5056162;28;20445;-71
2021/10/12 06:55:33;;;;;;;0.40;0.30;;;;;;;9.40;100.00;100942.03;5056020;28;20450;-72
2021/10/12 06:58:00;;;;;;;0.40;0.30;;;;;;;9.48;100.00;100942.22;5056060;28;20540;-73
2021/10/12 07:00:26;;;;;;;0.40;0.30;;;;;;;9.53;100.00;100942.16;5056109;28;20449;-73
2021/10/12 07:02:53;;;;;;;0.40;0.30;;;;;;;9.59;100.00;100941.00;5055961;28;20446;-71
2021/10/12 07:05:21;;;;;;;0.40;0.30;;;;;;;9.61;100.00;100943.47;5055570;28;20817;-72
2021/10/12 07:07:47;;;;;;;0.40;0.30;;;;;;;9.53;100.00;100939.47;5055964;28;20893;-71
2021/10/12 07:10:15;;;;;;;0.40;0.30;;;;;;;9.58;100.00;100947.53;5055805;28;20477;-73
2021/10/12 07:12:43;;;;;;;0.40;0.30;;;;;;;9.62;100.00;100945.06;5055802;28;20447;-72
2021/10/12 07:15:09;;;;;;;0.40;0.30;;;;;;;9.68;100.00;100941.19;5055764;28;20543;-72
2021/10/12 07:17:36;;;;;;;0.40;0.30;;;;;;;9.70;100.00;100947.16;5055233;28;20489;-72
2021/10/12 07:20:03;;;;;;;0.40;0.27;;;;;;;9.76;100.00;100946.00;5055663;28;20446;-71
2021/10/12 07:22:31;;;;;;;0.40;0.30;;;;;;;9.73;100.00;100946.56;5055304;28;20939;-71
2021/10/12 07:25:04;;;;;;;0.40;0.30;;;;;;;9.83;100.00;100941.06;5055363;28;20818;-72
2021/10/12 07:27:31;;;;;;;0.40;0.30;;;;;;;9.77;100.00;100944.09;5055489;28;20868;-72
2021/10/12 07:30:01;;;;;;;0.40;0.30;;;;;;;9.76;100.00;100946.00;5055478;28;20453;-72
2021/10/12 07:32:27;;;;;;;0.40;0.30;;;;;;;9.78;100.00;100943.81;5055443;28;20430;-72
2021/10/12 07:34:54;;;;;;;0.87;0.87;;;;;;;9.85;100.00;100952.38;5055378;28;20442;-71
2021/10/12 07:37:20;;;;;;;0.40;0.30;;;;;;;9.76;100.00;100943.28;5054866;28;20921;-72
2021/10/12 07:39:48;;;;;;;0.40;0.30;;;;;;;9.83;100.00;100951.88;5055324;28;20812;-72
2021/10/12 07:42:15;;;;;;;0.40;0.30;;;;;;;9.97;100.00;100951.19;5054953;28;20462;-72
2021/10/12 07:44:41;;;;;;;0.40;0.30;;;;;;;10.06;100.00;100949.47;5054870;28;20442;-72
2021/10/12 07:47:09;;;;;;;0.40;0.30;;;;;;;10.03;100.00;100955.44;5055078;28;20505;-72
2021/10/12 07:49:37;;;;;;;0.40;0.30;;;;;;;10.02;100.00;100951.13;5055085;28;20457;-72
2021/10/12 07:52:07;;;;;;;0.40;0.30;;;;;;;9.99;100.00;100949.00;5055043;28;20534;-71
2021/10/12 07:54:45;;;;;;;0.40;0.30;;;;;;;10.01;100.00;100941.41;5054990;28;20430;-69
2021/10/12 07:57:15;;;;;;;0.40;0.30;;;;;;;10.02;100.00;100945.72;5054877;28;20486;-72
2021/10/12 07:59:42;;;;;;;0.40;0.30;;;;;;;10.07;100.00;100942.97;5054957;28;20452;-72
2021/10/12 08:02:11;;;;;;;0.40;0.30;;;;;;;10.07;100.00;100942.97;5054924;28;20512;-72
2021/10/12 08:04:38;;;;;;;0.40;0.30;;;;;;;10.14;100.00;100934.47;5056038;28;20492;-70
2021/10/12 08:07:04;;;;;;;0.60;0.60;;;;;;;10.17;100.00;100939.31;5054716;28;20556;-70
2021/10/12 08:09:31;;;;;;;0.40;0.30;;;;;;;10.26;100.00;100941.13;5054743;28;20438;-70
2021/10/12 08:11:57;;;;;;;0.40;0.30;;;;;;;10.24;100.00;100935.19;5054731;28;20442;-70
2021/10/12 08:14:26;;;;;;;0.40;0.30;;;;;;;10.31;100.00;100929.41;5054627;28;20493;-70
2021/10/12 08:16:52;;;;;;;0.40;0.30;;;;;;;10.47;100.00;100938.16;5054463;28;20470;-70
2021/10/12 08:19:19;;;;;;;0.40;0.30;;;;;;;10.61;100.00;100936.34;5068563;28;20461;-70
2021/10/12 08:21:45;;;;;;;0.40;0.30;;;;;;;10.68;100.00;100933.28;5074409;28;20445;-70
2021/10/12 08:24:13;;;;;;;0.40;0.30;;;;;;;10.77;100.00;100931.50;5074417;28;20445;-70
2021/10/12 08:26:42;;;;;;;0.40;0.30;;;;;;;10.88;100.00;100932.16;5074275;28;20469;-70
2021/10/12 08:29:09;;;;;;;0.40;0.30;;;;;;;10.87;100.00;100939.47;5074262;28;20525;-70
2021/10/12 08:31:37;;;;;;;0.40;0.30;;;;;;;10.94;100.00;100928.28;5074015;28;20942;-70
2021/10/12 08:34:03;;;;;;;0.40;0.27;;;;;;;10.90;100.00;100927.25;5074235;28;20445;-71
2021/10/12 08:36:30;;;;;;;0.40;0.30;;;;;;;10.99;100.00;100934.41;5074110;28;20511;-70
2021/10/12 08:38:57;;;;;;;0.40;0.30;;;;;;;11.09;100.00;100933.44;5074084;28;20481;-70
2021/10/12 08:41:29;;;;;;;0.40;0.20;;;;;;;11.09;100.00;100923.41;5069966;28;20471;-70
2021/10/12 08:43:56;;;;;;;0.40;0.30;;;;;;;11.21;100.00;100928.38;5053844;28;20460;-70
2021/10/12 08:46:26;;;;;;;0.40;0.30;;;;;;;11.28;98.77;100931.50;5053933;28;20458;-70
2021/10/12 08:48:55;;;;;;;0.40;0.30;;;;;;;11.33;97.99;100927.88;5053191;28;20537;-70
2021/10/12 08:51:21;;;;;;;0.40;0.20;;;;;;;11.31;98.32;100928.19;5053896;28;20442;-70
2021/10/12 08:53:48;;;;;;;0.40;0.30;;;;;;;11.30;98.32;100925.78;5053898;28;20442;-70
2021/10/12 08:56:14;;;;;;;0.40;0.30;;;;;;;11.37;98.37;100923.47;5053768;28;20469;-70
2021/10/12 08:58:40;;;;;;;0.40;0.30;;;;;;;11.41;97.90;100919.06;5053722;28;20486;-70
2021/10/12 09:01:08;;;;;;;0.40;0.27;;;;;;;11.37;96.92;100920.78;5053675;28;20450;-70
2021/10/12 09:03:44;;;;;;;0.40;0.27;;;;;;;11.41;95.92;100910.13;5053756;28;20806;-71
2021/10/12 09:06:12;;;;;;;0.40;0.20;;;;;;;11.35;96.46;100912.94;5053567;28;20466;-70
2021/10/12 09:08:40;;;;;;;0.40;0.20;;;;;;;11.36;96.62;100921.88;5053271;28;20940;-70
2021/10/12 09:11:19;;;;;;;0.40;0.30;;;;;;;11.14;95.11;100922.53;5053173;28;20936;-70
2021/10/12 09:13:49;;;;;;;0.40;0.30;;;;;;;11.09;96.80;100911.75;5053563;28;20437;-70
2021/10/12 09:16:16;;;;;;;0.40;0.30;;;;;;;10.97;94.83;100912.22;5053116;28;21013;-70
2021/10/12 09:18:51;;;;;;;0.40;0.30;;;;;;;10.92;95.86;100903.38;5053322;28;20892;-70
2021/10/12 09:21:21;;;;;;;0.40;0.27;;;;;;;10.96;96.88;100901.69;5053381;28;20439;-70
2021/10/12 09:23:48;;;;;;;0.40;0.30;;;;;;;11.09;96.09;100895.50;5053370;28;20426;-70
2021/10/12 09:26:23;;;;;;;0.40;0.30;;;;;;;11.08;95.51;100889.28;5053281;28;20898;-70
2021/10/12 09:28:50;;;;;;;0.40;0.30;;;;;;;11.18;94.52;100895.63;5053351;28;20465;-70
2021/10/12 09:31:17;;;;;;;0.40;0.30;;;;;;;11.28;95.51;100898.16;5053296;28;20438;-70
2021/10/12 09:33:48;;;;;;;0.40;0.27;;;;;;;11.34;93.37;100884.22;5053269;28;20442;-71
2021/10/12 09:36:30;;;;;;;0.40;0.20;;;;;;;11.58;93.72;100891.38;5053136;28;20466;-70
2021/10/12 09:38:57;;;;;;;0.40;0.30;;;;;;;11.80;94.09;100882.53;5053131;28;20489;-70
2021/10/12 09:41:26;;;;;;;0.40;0.30;;;;;;;12.02;90.34;100881.88;5052774;28;20453;-70
2021/10/12 09:43:52;;;;;;;0.40;0.30;;;;;;;12.07;89.08;100887.19;5053183;28;20431;-70
2021/10/12 09:46:28;;;;;;;0.40;0.30;;;;;;;12.01;89.55;100874.84;5053049;28;20462;-71
2021/10/12 09:48:54;;;;;;;0.40;0.20;;;;;;;12.03;86.96;100884.25;5052914;28;20872;-70
2021/10/12 09:51:21;;;;;;;0.40;0.23;;;;;;;12.02;84.32;100881.88;5053233;28;20439;-70
2021/10/12 09:53:49;;;;;;;0.40;0.30;;;;;;;12.02;87.15;100876.44;5053145;28;20451;-70
2021/10/12 09:56:15;;;;;;;0.40;0.30;;;;;;;11.82;84.15;100873.03;5052929;28;20468;-70
2021/10/12 09:58:43;;;;;;;0.40;0.20;;;;;;;11.72;82.69;100883.25;5053393;28;20477;-70
2021/10/12 10:01:10;;;;;;;0.40;0.30;;;;;;;11.62;82.65;100878.81;5057176;28;20450;-70
2021/10/12 10:03:37;;;;;;;0.40;0.30;;;;;;;11.61;82.80;100879.94;5057064;28;20446;-70
2021/10/12 10:06:08;;;;;;;0.40;0.23;;;;;;;11.59;81.42;100871.28;5056988;28;20468;-70
2021/10/12 10:08:38;;;;;;;0.40;0.30;;;;;;;11.61;82.32;100875.31;5057039;28;20427;-70
2021/10/12 10:11:06;;;;;;;0.40;0.27;;;;;;;11.59;83.20;100874.00;5056945;28;20445;-70
2021/10/12 10:13:33;;;;;;;0.40;0.30;;;;;;;11.72;83.21;100859.63;5056910;28;20445;-69
2021/10/12 10:16:01;;;;;;;0.40;0.30;;;;;;;11.84;83.55;100865.38;5056817;28;20523;-70
2021/10/12 10:18:28;;;;;;;0.40;0.30;;;;;;;11.99;84.21;100860.75;5056763;28;20482;-70
2021/10/12 10:20:56;;;;;;;0.40;0.30;;;;;;;12.19;81.75;100856.81;5060728;28;20460;-70
2021/10/12 10:23:50;;;;;;;0.40;0.30;;;;;;;12.50;80.10;100854.22;5076747;28;20444;-72
2021/10/12 10:26:25;;;;;;;0.40;0.30;;;;;;;12.66;79.67;100860.91;5076399;28;21008;-71
2021/10/12 10:28:55;;;;;;;0.40;0.30;;;;;;;12.93;78.94;100859.16;5075991;28;20437;-73
2021/10/12 10:31:40;;;;;;;0.40;0.30;;;;;;;13.04;75.24;100868.66;5075997;28;20441;-71
2021/10/12 10:34:28;;;;;;;0.40;0.30;;;;;;;12.95;75.78;100863.16;5075983;28;20421;-71
2021/10/12 10:37:31;;;;;;;0.40;0.30;;;;;;;12.86;75.95;100863.09;5075930;28;20465;-70
2021/10/12 10:40:25;;;;;;;0.40;0.30;;;;;;;12.92;74.43;100861.06;5076127;28;20432;-69
2021/10/12 10:43:10;;;;;;;0.40;0.30;;;;;;;12.90;74.08;100863.28;5075237;28;20474;-69
2021/10/12 10:45:45;;;;;;;0.40;0.30;;;;;;;12.69;75.55;100862.97;5075643;28;20829;-69
2021/10/12 10:48:13;;;;;;;0.40;0.30;;;;;;;12.60;78.39;100857.47;5075561;28;20417;-69
2021/10/12 10:50:40;;;;;;;0.40;0.30;;;;;;;12.76;77.69;100852.50;5075240;28;20937;-70
2021/10/12 10:53:10;;;;;;;0.40;0.30;;;;;;;12.86;77.90;100857.66;5075481;28;20448;-72
2021/10/12 10:55:39;;;;;;;0.40;0.30;;;;;;;12.73;76.48;100855.81;5075114;28;20949;-71
2021/10/12 10:58:13;;;;;;;0.40;0.30;;;;;;;12.67;75.99;100859.78;5075369;28;20489;-71
2021/10/12 11:00:44;;;;;;;0.40;0.30;;;;;;;12.73;77.58;100855.81;5075446;28;20420;-70
2021/10/12 11:03:35;;;;;;;0.40;0.30;;;;;;;13.04;76.88;100852.34;5075385;28;20441;-70
2021/10/12 11:06:05;;;;;;;0.40;0.30;;;;;;;13.71;73.96;100844.03;5075206;28;20461;-71
2021/10/12 11:08:33;;;;;;;0.40;0.30;;;;;;;14.24;69.22;100848.47;5075223;28;20622;-71
2021/10/12 11:11:00;;;;;;;0.40;0.20;;;;;;;14.34;68.94;100850.91;5074549;28;20889;-71
2021/10/12 11:13:40;;;;;;;0.40;0.30;;;;;;;13.76;68.07;100848.53;5075355;28;20452;-71
2021/10/12 11:16:08;;;;;;;0.40;0.30;;;;;;;14.08;70.59;100841.91;5075187;28;20468;-71
2021/10/12 11:18:35;;;;;;;0.40;0.30;;;;;;;14.92;64.35;100839.81;5075082;28;20559;-71
2021/10/12 11:21:03;;;;;;;0.40;0.20;;;;;;;15.52;62.11;100838.84;5074999;28;20449;-71
2021/10/12 11:23:32;;;;;;;0.40;0.20;;;;;;;16.27;59.80;100842.59;5075033;28;20538;-71
2021/10/12 11:26:06;;;;;;;0.40;0.30;;;;;;;16.56;55.66;100844.47;5074949;28;20496;-71
2021/10/12 11:28:34;;;;;;;0.40;0.30;;;;;;;17.09;54.56;100834.66;5074991;28;20434;-71